Roscoe, MT (59071)

9:17 PM MDT on August 24, 2016 (GMT -0600)
Willow Creek Road | | Change Station

Elev 5102 ft 45.27 °N, 109.26 °W | Updated 9 minutes ago

Mostly Cloudy
Mostly Cloudy
50.2 °F
Feels Like 50.2 °F
N
8.3
Wind Variable Wind from WNW

Today
High -- | Low -- °F
--% Chance of Precip.
Yesterday
High -- | Low -- °F
Precip. -- in
Pressure 30.30 in
Visibility 10.0 miles
Clouds Mostly Cloudy 8500 ft
Dew Point 45 °F
Humidity 83%
Rainfall 0.20 in
Snow Depth Not available.
6:30 AM 8:08 PM
Waning Gibbous, 50% visible
METAR KBIL 250253Z 00000KT 10SM BKN085 14/03 A3033 RMK AO2 SLP258 T01440033 52017
Pressure 30.30 in
Visibility 10.0 miles
Clouds Mostly Cloudy 8500 ft
Dew Point 45 °F
Humidity 83%
Rainfall 0.20 in
Snow Depth Not available.
6:30 AM 8:08 PM
Waning Gibbous, 50% visible
METAR KBIL 250253Z 00000KT 10SM BKN085 14/03 A3033 RMK AO2 SLP258 T01440033 52017

10-Day Weather Forecast

Almanac

Astronomy

Aug. 24, 2016 Rise Set
Actual Time
Civil Twilight
Nautical Twilight
Astronomical Twilight
Moon
Length of Visible Light
Length of Day
Tomorrow will be .
, % of the Moon is Illuminated

Today's Extremes

State Highs State Lows

Community

WunderPhotos

Upload Photos

1,934,787 photos uploaded!

WunderBlog® & News

Nearby

Air Quality

  Air Quality AQ Index Pollutant
Not available.

Snow Depth

Station Depth Elevation

Earthquake Activity

City Distance Mag. Time & Date
Minimum magnitude displayed is 2.5.

Coastal Water Temperatures

Place Temperature

Stations

Nearby Weather Stations

Station Location Temp. Windchill Dew Point Humidity Wind Precip. Elev Updated Type
                   

Watches & Warnings

There are currently no watches in effect.